Permanente, California
Current Conditions -  °F | °C
As of 3:56 PM on Sunday 25 Jan 2015 (Local Time) from KNUQ Reporting Station
Clear Clear  
Wind Chill: 18°   Ceiling: Unl
Heat Index: 18°   Visibility: 10mi
Dew Point:   Wind: 3mph
Humidity: 41%   Direction: 290°WNW
Pressure: 30.03"   Gusts: NA
Location:  37.305°N, 122.094°W
Report Text: KNUQ 252356Z 29003KT 10SM CLR 18/04 A3003 RMK AO2 SLP171 T01780044 10183 20106 56016
Loading
Personal Weather Stations






























Interactive Weather Map New forecast layout! Learn more

10-Day Weather Forecast

Advertisements
Track Severe Weather on mobile